createdAt,value
2023-04-25T00:02:32.869Z,97181.59
2023-04-25T00:07:38.967Z,97179.00
2023-04-25T00:12:43.232Z,97182.41
2023-04-25T00:17:47.667Z,97185.78
2023-04-25T00:22:53.784Z,97184.19
2023-04-25T00:27:57.896Z,97194.63
2023-04-25T00:33:01.831Z,97195.44
2023-04-25T00:38:07.458Z,97195.00
2023-04-25T00:43:11.703Z,97198.00
2023-04-25T00:48:15.997Z,97199.00
2023-04-25T00:53:21.592Z,97186.78
2023-04-25T00:58:25.592Z,97182.72
2023-04-25T01:03:31.034Z,97189.34
2023-04-25T01:08:37.500Z,97191.31
2023-04-25T01:13:41.588Z,97183.69
2023-04-25T01:18:45.822Z,97185.13
2023-04-25T01:23:52.347Z,97198.56
2023-04-25T01:28:57.877Z,97191.50
2023-04-25T01:34:02.684Z,97185.91
2023-04-25T01:39:08.817Z,97190.75
2023-04-25T01:44:12.887Z,97194.31
2023-04-25T01:49:17.093Z,97195.47
2023-04-25T01:54:23.538Z,97204.28
2023-04-25T01:59:28.005Z,97201.84
2023-04-25T02:04:44.891Z,97196.13
2023-04-25T02:09:51.989Z,97201.28
2023-04-25T02:14:57.381Z,97195.06
2023-04-25T02:20:14.916Z,97201.28
2023-04-25T02:25:20.994Z,97205.81
2023-04-25T02:30:24.879Z,97218.63
2023-04-25T02:35:28.803Z,97208.84
2023-04-25T02:40:34.096Z,97204.56
2023-04-25T02:45:38.791Z,97209.16
2023-04-25T02:50:43.433Z,97206.97
2023-04-25T02:55:48.629Z,97210.00
2023-04-25T03:00:52.662Z,97209.53
2023-04-25T03:05:56.985Z,97206.34
2023-04-25T03:11:08.533Z,97210.69
2023-04-25T03:16:13.074Z,97209.09
2023-04-25T03:21:16.998Z,97213.06
2023-04-25T03:26:22.506Z,97212.19
2023-04-25T03:31:26.563Z,97205.28
2023-04-25T03:36:30.745Z,97210.44
2023-04-25T03:41:36.301Z,97220.34
2023-04-25T03:46:46.020Z,97221.16
2023-04-25T03:51:50.354Z,97219.72
2023-04-25T03:56:55.841Z,97235.53
2023-04-25T04:02:03.239Z,97236.72
2023-04-25T04:07:09.081Z,97235.03
2023-04-25T04:12:16.850Z,97243.38
2023-04-25T04:17:21.839Z,97247.97
2023-04-25T04:22:26.673Z,97246.28
2023-04-25T04:27:35.856Z,97252.56
2023-04-25T04:33:02.762Z,97250.28
2023-04-25T04:38:07.314Z,97254.78
2023-04-25T04:43:15.849Z,97252.63
2023-04-25T04:48:41.125Z,97252.00
2023-04-25T04:54:08.147Z,97253.28
2023-04-25T04:59:31.681Z,97259.66
2023-04-25T05:04:43.775Z,97261.44
2023-04-25T05:10:07.846Z,97271.28
2023-04-25T05:15:39.619Z,97273.81
2023-04-25T05:21:04.066Z,97282.94
2023-04-25T05:26:43.700Z,97282.88
2023-04-25T05:32:09.491Z,97281.09
2023-04-25T05:37:13.511Z,97285.06
2023-04-25T05:42:29.424Z,97287.59
2023-04-25T05:48:01.103Z,97288.78
2023-04-25T05:53:31.544Z,97281.16
2023-04-25T05:58:38.409Z,97293.56
2023-04-25T06:03:44.447Z,97285.53
2023-04-25T06:08:48.676Z,97290.59
2023-04-25T06:13:53.055Z,97289.78
2023-04-25T06:18:58.575Z,97291.09
2023-04-25T06:24:03.573Z,97294.38
2023-04-25T06:29:08.272Z,97296.16
2023-04-25T06:34:13.800Z,97291.41
2023-04-25T06:39:21.088Z,97293.50
2023-04-25T06:44:27.381Z,97299.38
2023-04-25T06:49:32.764Z,97296.19
2023-04-25T06:54:37.284Z,97300.84
2023-04-25T06:59:53.543Z,97298.00
2023-04-25T07:05:01.005Z,97298.31
2023-04-25T07:10:06.425Z,97295.53
2023-04-25T07:15:12.579Z,97295.56
2023-04-25T07:20:21.140Z,97294.50
2023-04-25T07:25:25.986Z,97298.09
2023-04-25T07:30:30.931Z,97298.72
2023-04-25T07:35:36.686Z,97309.59
2023-04-25T07:40:40.557Z,97302.44
2023-04-25T07:45:47.006Z,97305.22
2023-04-25T07:50:54.063Z,97308.41
2023-04-25T07:55:58.699Z,97306.38
2023-04-25T08:01:03.350Z,97309.00
2023-04-25T08:06:14.906Z,97306.84
2023-04-25T08:11:34.510Z,97315.72
2023-04-25T08:16:38.819Z,97310.88
2023-04-25T08:21:44.902Z,97309.50
2023-04-25T08:26:53.861Z,97309.47
2023-04-25T08:32:00.357Z,97321.13
2023-04-25T08:37:06.908Z,97317.69
2023-04-25T08:42:25.608Z,97318.53
2023-04-25T08:47:29.948Z,97325.56
2023-04-25T08:52:39.024Z,97314.31
2023-04-25T08:57:44.432Z,97329.72
2023-04-25T09:02:49.369Z,97328.31
2023-04-25T09:07:55.314Z,97331.41
2023-04-25T09:13:07.009Z,97343.84
2023-04-25T09:18:30.753Z,97331.78
2023-04-25T09:23:43.747Z,97335.63
2023-04-25T09:28:49.043Z,97333.41
2023-04-25T09:34:01.560Z,97334.78
2023-04-25T09:39:16.212Z,97326.19
2023-04-25T09:44:26.506Z,97335.06
2023-04-25T09:49:32.476Z,97332.03
2023-04-25T09:54:50.318Z,97337.06
2023-04-25T10:00:04.437Z,97328.81
2023-04-25T10:05:18.741Z,97334.44
2023-04-25T10:10:26.808Z,97328.44
2023-04-25T10:15:31.009Z,97340.25
2023-04-25T10:20:35.427Z,97352.81
2023-04-25T10:25:41.556Z,97325.28
2023-04-25T10:30:59.664Z,97325.06
2023-04-25T10:36:11.995Z,97325.88
2023-04-25T10:41:19.692Z,97338.16
2023-04-25T10:46:25.637Z,97335.66
2023-04-25T10:51:40.072Z,97324.59
2023-04-25T10:56:56.453Z,97324.09
2023-04-25T11:02:00.646Z,97331.81
2023-04-25T11:07:13.583Z,97325.53
2023-04-25T11:12:19.026Z,97323.31
2023-04-25T11:17:23.078Z,97329.00
2023-04-25T11:22:28.238Z,97334.66
2023-04-25T11:27:34.160Z,97324.47
2023-04-25T11:32:38.481Z,97325.16
2023-04-25T11:37:43.157Z,97333.44
2023-04-25T11:42:49.533Z,97328.22
2023-04-25T11:47:53.634Z,97334.63
2023-04-25T11:52:59.164Z,97337.03
2023-04-25T11:58:06.618Z,97343.91
2023-04-25T12:03:11.894Z,97335.03
2023-04-25T12:08:17.558Z,97337.88
2023-04-25T12:13:27.690Z,97324.19
2023-04-25T12:18:31.647Z,97328.22
2023-04-25T12:23:35.820Z,97333.44
2023-04-25T12:28:41.542Z,97331.03
2023-04-25T12:33:48.819Z,97342.69
2023-04-25T12:38:53.224Z,97339.84
2023-04-25T12:43:58.905Z,97338.44
2023-04-25T12:49:17.246Z,97344.00
2023-04-25T12:54:22.334Z,97332.63
2023-04-25T12:59:27.890Z,97332.03
2023-04-25T13:04:32.264Z,97332.44
2023-04-25T13:09:36.478Z,97329.22
2023-04-25T13:14:41.909Z,97324.19
2023-04-25T13:19:46.220Z,97332.81
2023-04-25T13:24:50.462Z,97337.25
2023-04-25T13:29:55.939Z,97338.25
2023-04-25T13:34:59.750Z,97337.66
2023-04-25T13:40:06.022Z,97328.63
2023-04-25T13:45:11.983Z,97330.22
2023-04-25T13:50:17.047Z,97333.25
2023-04-25T13:55:21.354Z,97329.63
2023-04-25T14:00:26.824Z,97333.84
2023-04-25T14:05:30.656Z,97341.28
2023-04-25T14:10:34.511Z,97335.03
2023-04-25T14:15:39.810Z,97339.09
2023-04-25T14:20:43.677Z,97347.09
2023-04-25T14:25:48.628Z,97336.66
2023-04-25T14:30:54.506Z,97351.94
2023-04-25T14:35:59.157Z,97352.91
2023-04-25T14:41:02.975Z,97345.06
2023-04-25T14:46:08.655Z,97348.50
2023-04-25T14:51:12.768Z,97352.16
2023-04-25T14:56:16.949Z,97348.94
2023-04-25T15:01:22.949Z,97355.34
2023-04-25T15:06:29.667Z,97360.34
2023-04-25T15:11:33.810Z,97356.75
2023-04-25T15:16:39.627Z,97355.97
2023-04-25T15:21:43.600Z,97361.78
2023-04-25T15:26:47.522Z,97367.59
2023-04-25T15:31:52.913Z,97362.19
2023-04-25T15:36:58.674Z,97359.94
2023-04-25T15:42:03.527Z,97361.28
2023-04-25T15:47:09.101Z,97353.06
2023-04-25T15:52:13.252Z,97357.50
2023-04-25T15:57:17.275Z,97365.00
2023-04-25T16:02:23.225Z,97359.94
2023-04-25T16:07:27.101Z,97359.56
2023-04-25T16:12:31.903Z,97355.13
2023-04-25T16:17:37.686Z,97353.72
2023-04-25T16:22:43.029Z,97360.34
2023-04-25T16:27:46.869Z,97361.16
2023-04-25T16:32:52.153Z,97364.00
2023-04-25T16:37:56.073Z,97358.94
2023-04-25T16:43:00.633Z,97360.31
2023-04-25T16:48:06.260Z,97362.13
2023-04-25T16:53:10.299Z,97365.31
2023-04-25T16:58:14.574Z,97365.28
2023-04-25T17:03:20.385Z,97367.06
2023-04-25T17:08:24.604Z,97380.72
2023-04-25T17:13:30.706Z,97385.75
2023-04-25T17:18:37.331Z,97390.75
2023-04-25T17:23:45.668Z,97387.06
2023-04-25T17:28:50.150Z,97396.03
2023-04-25T17:33:55.941Z,97407.97
2023-04-25T17:39:00.003Z,97407.09
2023-04-25T17:44:04.123Z,97413.22
2023-04-25T17:49:09.607Z,97424.56
2023-04-25T17:54:13.547Z,97429.41
2023-04-25T17:59:17.818Z,97432.59
2023-04-25T18:04:23.049Z,97441.00
2023-04-25T18:09:28.792Z,97450.94
2023-04-25T18:14:34.295Z,97456.88
2023-04-25T18:19:39.607Z,97461.94
2023-04-25T18:24:44.740Z,97472.81
2023-04-25T18:29:48.621Z,97480.06
2023-04-25T18:34:53.966Z,97485.81
2023-04-25T18:39:58.609Z,97490.16
2023-04-25T18:45:03.137Z,97497.41
2023-04-25T18:50:09.870Z,97505.00
2023-04-25T18:55:13.936Z,97508.41
2023-04-25T19:00:18.411Z,97517.56
2023-04-25T19:05:23.697Z,97528.41
2023-04-25T19:10:28.961Z,97531.34
2023-04-25T19:15:33.496Z,97519.00
2023-04-25T19:20:39.378Z,97523.16
2023-04-25T19:25:43.780Z,97535.69
2023-04-25T19:30:47.787Z,97551.66
2023-04-25T19:35:53.105Z,97565.75
2023-04-25T19:40:57.276Z,97565.22
2023-04-25T19:46:01.403Z,97560.31
2023-04-25T19:51:07.734Z,97566.59
2023-04-25T19:56:11.945Z,97561.47
2023-04-25T20:01:17.301Z,97573.22
2023-04-25T20:06:23.101Z,97574.88
2023-04-25T20:11:29.115Z,97573.25
2023-04-25T20:16:33.056Z,97579.53
2023-04-25T20:21:38.728Z,97578.78
2023-04-25T20:26:42.580Z,97579.22
2023-04-25T20:31:46.790Z,97581.91
2023-04-25T20:36:52.917Z,97581.91
2023-04-25T20:41:57.728Z,97592.66
2023-04-25T20:47:02.140Z,97591.00
2023-04-25T20:52:07.988Z,97585.53
2023-04-25T20:57:12.213Z,97582.59
2023-04-25T21:02:16.457Z,97589.75
2023-04-25T21:07:21.917Z,97593.78
2023-04-25T21:12:26.152Z,97596.78
2023-04-25T21:17:30.425Z,97598.75
2023-04-25T21:22:36.389Z,97594.72
2023-04-25T21:27:40.702Z,97603.47
2023-04-25T21:32:46.317Z,97613.88
2023-04-25T21:37:52.627Z,97614.03
2023-04-25T21:42:56.800Z,97615.03
2023-04-25T21:48:00.800Z,97612.78
2023-04-25T21:53:08.584Z,97621.59
2023-04-25T21:58:12.461Z,97636.97
2023-04-25T22:03:16.769Z,97632.78
2023-04-25T22:08:22.492Z,97638.63
2023-04-25T22:13:28.498Z,97639.16
2023-04-25T22:18:32.698Z,97645.13
2023-04-25T22:23:38.440Z,97657.66
2023-04-25T22:28:42.491Z,97655.91
2023-04-25T22:33:48.560Z,97655.09
2023-04-25T22:38:54.809Z,97669.91
2023-04-25T22:43:59.027Z,97671.53
2023-04-25T22:49:02.946Z,97677.72
2023-04-25T22:54:08.311Z,97684.19
2023-04-25T22:59:12.174Z,97686.63
2023-04-25T23:04:16.718Z,97682.59
2023-04-25T23:09:22.225Z,97685.56
2023-04-25T23:14:26.235Z,97686.06
2023-04-25T23:19:30.187Z,97700.19
2023-04-25T23:24:39.013Z,97693.56
2023-04-25T23:29:43.244Z,97697.66
2023-04-25T23:34:47.362Z,97698.16
2023-04-25T23:39:53.373Z,97705.28
2023-04-25T23:44:57.193Z,97705.59
2023-04-25T23:50:01.354Z,97703.50
2023-04-25T23:55:07.984Z,97710.44
